Commerce, OK (74339)

2:49 AM CST on December 21, 2014 (GMT -0600)
Miami Airport | Change Station
CLOSE
Current Station
Personal Weather Station
Location: Miami, OK
Elevation: 807 ft
Nearby Weather Stations

Elev 807 ft 36.91 °N, 94.89 °W | Updated 4 seconds ago

Overcast
Overcast
42.9 °F
Feels Like 38 °F
N
8.0
Wind Variable Wind from SSE
Gusts 11.0 mph

Today
High -- | Low -- °F
--% Chance of Precip.
Yesterday
High -- | Low -- °F
Precip. -- in
7:28 AM 5:06 PM
Waning Crescent, 1% visible
Pressure 30.15 in
Visibility 7.0 miles
Clouds Overcast 2200 ft
Windchill 38 °F
Dew Point 41 °F
Humidity 93%
Rainfall 0.00 in
Snow Depth Not available.
UV 0 out of 12
Pollen 4.50 out of 12
Air Quality Not available.
Flu Activity Not available.
METAR KGMJ 210835Z AUTO 00000KT 7SM OVC022 07/05 A3015 RMK AO2

More Conditions Fewer Conditions

Pressure 30.15 in
Visibility 7.0 miles
Clouds Overcast 2200 ft
Windchill 38 °F
Dew Point 41 °F
Humidity 93%
Rainfall 0.00 in
Snow Depth Not available.
UV 0 out of 12
Pollen 4.50 out of 12
Air Quality Not available.
Flu Activity Not available.
METAR KGMJ 210835Z AUTO 00000KT 7SM OVC022 07/05 A3015 RMK AO2

More Conditions Fewer Conditions

Nowcast | as of 1:38 am CST on December 21, 2014

At 138 am...National Weather Service Doppler radar and area surface observations indicated areas of light drizzle developing across portions of eastern Oklahoma and western Arkansas. Drizzle is expected to continue through much of Sunday morning...and with temperatures above freezing...reduced visibilities in the heaviest drizzle should be the only travel impacts.

×

10-Day Weather Forecast

Almanac

Astronomy

Dec. 21, 2014 Rise Set
Actual Time
Civil Twilight
Nautical Twilight
Astronomical Twilight
Moon
Length of Visible Light
Length of Day
Tomorrow will be .
, % of the Moon is Illuminated

Today's Extremes

State Highs State Lows

Community

WunderPhotos

Upload Photos

1,779,364 photos uploaded!

WunderBlogs® & News

Nearby

Air Quality

  Air Quality AQ Index Pollutant
Not available.

Snow Depth

Station Depth Elevation

Earthquake Activity

City Distance Mag. Time & Date
Minimum magnitude displayed is 2.5.

Coastal Water Temperatures

Place Temperature

Nearby Weather Stations